Time;durP1;ratioP1;P1;durP2;ratioP2;P2;SDS_P1;SDS_P2;PMS_P1;PMS_P2;Temp;Humidity;BMP_temperature;BMP_pressure;BME280_temperature;BME280_humidity;BME280_pressure;Samples;Min_cycle;Max_cycle;Signal;HPM_P1;HPM_P2
2021/04/26 00:02:06;;;;;;;1.45;1.17;;;14.90;63.00;;;;;;4896794;29;20423;-80
2021/04/26 00:04:32;;;;;;;7.18;1.30;;;14.90;62.50;;;;;;4897136;29;20552;-79
2021/04/26 00:06:58;;;;;;;1.33;0.98;;;14.90;61.80;;;;;;4896641;29;20025;-82
2021/04/26 00:09:23;;;;;;;3.53;1.30;;;14.90;62.10;;;;;;4879796;29;20488;-82
2021/04/26 00:11:49;;;;;;;0.70;0.68;;;14.90;61.40;;;;;;4896845;29;20029;-81
2021/04/26 00:14:15;;;;;;;2.38;0.75;;;14.90;60.80;;;;;;4896537;29;20032;-82
2021/04/26 00:16:41;;;;;;;3.85;1.00;;;14.90;60.80;;;;;;4896586;29;20520;-80
2021/04/26 00:19:06;;;;;;;1.20;0.85;;;14.90;60.90;;;;;;4873523;29;20067;-82
2021/04/26 00:21:32;;;;;;;3.70;1.33;;;14.90;60.60;;;;;;4885581;29;20408;-82
2021/04/26 00:23:58;;;;;;;6.18;0.80;;;14.90;60.20;;;;;;4879215;29;20119;-82
2021/04/26 00:26:24;;;;;;;3.47;1.05;;;14.90;59.90;;;;;;4894750;29;20543;-81
2021/04/26 00:28:50;;;;;;;9.10;1.27;;;14.90;60.00;;;;;;4890070;29;20024;-80
2021/04/26 00:31:16;;;;;;;3.58;1.08;;;14.80;59.60;;;;;;4900401;29;20040;-82
2021/04/26 00:33:41;;;;;;;1.73;1.23;;;14.80;59.30;;;;;;4900558;29;20037;-82
2021/04/26 00:36:07;;;;;;;1.10;0.88;;;14.80;58.90;;;;;;4896265;29;20037;-81
2021/04/26 00:38:33;;;;;;;4.35;1.10;;;14.90;58.10;;;;;;4864372;29;20025;-82
2021/04/26 00:40:58;;;;;;;1.83;0.98;;;14.90;58.30;;;;;;4885429;29;20033;-81
2021/04/26 00:43:24;;;;;;;3.83;0.90;;;14.90;57.70;;;;;;4889495;29;20061;-80
2021/04/26 00:45:50;;;;;;;1.13;0.82;;;14.80;57.60;;;;;;4894183;29;20503;-82
2021/04/26 00:48:15;;;;;;;2.40;0.80;;;14.80;57.10;;;;;;4896132;29;20029;-82
2021/04/26 00:50:42;;;;;;;3.17;1.00;;;14.80;57.30;;;;;;4895166;29;20040;-82
2021/04/26 00:53:09;;;;;;;1.80;1.05;;;14.80;56.60;;;;;;4898054;29;20028;-82
2021/04/26 00:55:38;;;;;;;2.28;0.98;;;14.90;56.50;;;;;;4864455;29;20040;-80
2021/04/26 00:58:05;;;;;;;4.10;1.08;;;14.80;56.10;;;;;;4891727;29;20036;-82
2021/04/26 01:00:31;;;;;;;1.95;0.93;;;14.80;55.60;;;;;;4883158;29;20029;-83
2021/04/26 01:02:58;;;;;;;1.30;0.80;;;14.80;55.30;;;;;;4899906;29;20020;-81
2021/04/26 01:05:27;;;;;;;3.92;0.98;;;14.80;54.80;;;;;;4899873;29;20476;-82
2021/04/26 01:07:53;;;;;;;4.38;0.93;;;14.80;54.90;;;;;;4880469;29;20507;-80
2021/04/26 01:10:22;;;;;;;1.48;1.02;;;14.80;54.60;;;;;;4899579;29;20037;-80
2021/04/26 01:13:25;;;;;;;3.05;0.90;;;14.80;54.30;;;;;;4899569;29;20056;-80
2021/04/26 01:16:06;;;;;;;0.82;0.52;;;14.80;54.40;;;;;;4899724;29;20037;-82
2021/04/26 01:18:53;;;;;;;2.33;0.65;;;14.80;54.00;;;;;;4882864;29;20381;-80
2021/04/26 01:21:44;;;;;;;1.63;0.93;;;14.80;53.70;;;;;;4892634;29;20032;-80
2021/04/26 01:24:27;;;;;;;2.38;0.57;;;14.80;54.80;;;;;;4882680;29;20021;-82
2021/04/26 01:26:59;;;;;;;2.17;0.70;;;14.80;53.50;;;;;;4892246;29;20033;-82
2021/04/26 01:29:39;;;;;;;2.87;1.07;;;14.80;52.80;;;;;;4893502;29;20029;-80
2021/04/26 01:32:21;;;;;;;1.58;0.73;;;14.80;52.70;;;;;;4899455;29;20031;-82
2021/04/26 01:34:49;;;;;;;1.80;0.88;;;14.80;52.30;;;;;;4882540;29;20033;-81
2021/04/26 01:37:15;;;;;;;0.50;0.50;;;14.90;52.00;;;;;;4898997;29;20061;-82
2021/04/26 01:39:43;;;;;;;2.05;0.75;;;14.90;51.70;;;;;;4898259;29;20040;-80
2021/04/26 01:42:11;;;;;;;3.22;0.85;;;14.90;51.80;;;;;;4898763;29;20050;-82
2021/04/26 01:44:37;;;;;;;1.95;0.80;;;14.90;52.10;;;;;;4898243;29;20024;-82
2021/04/26 01:47:07;;;;;;;5.15;1.17;;;14.80;51.90;;;;;;4881327;29;20029;-80
2021/04/26 01:49:35;;;;;;;0.85;0.60;;;14.80;51.90;;;;;;4894161;29;20028;-81
2021/04/26 01:52:02;;;;;;;1.92;0.40;;;14.80;52.10;;;;;;4897862;29;20468;-81
2021/04/26 01:54:29;;;;;;;2.40;1.02;;;14.80;52.00;;;;;;4893920;29;20104;-82
2021/04/26 01:56:56;;;;;;;2.63;0.70;;;14.80;51.50;;;;;;4894601;29;20029;-82
2021/04/26 01:59:23;;;;;;;3.38;0.70;;;14.70;52.50;;;;;;4898867;29;20137;-80
2021/04/26 02:01:54;;;;;;;3.95;0.88;;;14.60;56.60;;;;;;4898970;29;20029;-79
2021/04/26 02:04:21;;;;;;;1.48;0.68;;;14.40;57.90;;;;;;4889072;29;20055;-79
2021/04/26 02:06:49;;;;;;;1.92;0.93;;;14.40;57.30;;;;;;4880115;29;20021;-80
2021/04/26 02:09:15;;;;;;;1.60;0.80;;;14.30;57.10;;;;;;4879640;29;20481;-80
2021/04/26 02:11:41;;;;;;;3.25;0.70;;;14.30;56.00;;;;;;4879249;29;20119;-80
2021/04/26 02:14:10;;;;;;;0.70;0.60;;;14.30;55.00;;;;;;4880508;29;20456;-79
2021/04/26 02:16:36;;;;;;;3.20;0.70;;;14.30;56.20;;;;;;4881743;29;20041;-80
2021/04/26 02:19:02;;;;;;;0.93;0.43;;;14.30;54.10;;;;;;4898546;29;20032;-80
2021/04/26 02:21:27;;;;;;;4.18;1.48;;;14.40;53.60;;;;;;4891646;29;20044;-80
2021/04/26 02:23:54;;;;;;;4.40;0.88;;;14.40;53.10;;;;;;4896688;29;20021;-80
2021/04/26 02:26:20;;;;;;;2.22;0.93;;;14.40;52.20;;;;;;4894586;29;20040;-78
2021/04/26 02:28:45;;;;;;;1.92;0.60;;;14.50;51.90;;;;;;4896713;29;20028;-80
2021/04/26 02:31:18;;;;;;;4.28;0.85;;;14.50;51.50;;;;;;4881476;29;20041;-80
2021/04/26 02:33:52;;;;;;;1.40;0.70;;;14.60;51.40;;;;;;4881546;29;20443;-80
2021/04/26 02:36:24;;;;;;;5.18;1.02;;;14.60;50.90;;;;;;4879616;29;20048;-79
2021/04/26 02:38:53;;;;;;;0.85;0.57;;;14.60;50.30;;;;;;4897880;29;20051;-78
2021/04/26 02:41:31;;;;;;;1.55;0.80;;;14.60;50.60;;;;;;4897411;29;20044;-78
2021/04/26 02:44:03;;;;;;;1.73;0.82;;;14.60;50.30;;;;;;4880455;29;20558;-80
2021/04/26 02:46:32;;;;;;;2.57;0.83;;;14.60;50.40;;;;;;4891773;29;20040;-80
2021/04/26 02:48:59;;;;;;;4.88;0.98;;;14.60;50.10;;;;;;4897826;29;20040;-80
2021/04/26 02:51:29;;;;;;;1.33;0.57;;;14.60;50.30;;;;;;4887213;29;20028;-78
2021/04/26 02:53:56;;;;;;;0.52;0.40;;;14.60;50.30;;;;;;4897707;29;20161;-79
2021/04/26 02:56:22;;;;;;;9.13;1.00;;;14.50;50.10;;;;;;4880778;29;20032;-79
2021/04/26 02:58:51;;;;;;;0.95;0.68;;;14.60;50.50;;;;;;4893855;29;20029;-80
2021/04/26 03:01:17;;;;;;;1.30;0.65;;;14.50;50.70;;;;;;4862576;29;20029;-81
2021/04/26 03:03:44;;;;;;;1.13;0.77;;;14.50;51.30;;;;;;4880352;29;20021;-80
2021/04/26 03:06:10;;;;;;;0.40;0.40;;;14.40;52.30;;;;;;4862371;29;20025;-78
2021/04/26 03:08:38;;;;;;;2.03;0.52;;;14.30;53.00;;;;;;4878554;29;20044;-80
2021/04/26 03:11:10;;;;;;;3.03;0.95;;;14.30;53.60;;;;;;4873424;29;20035;-78
2021/04/26 03:13:36;;;;;;;2.60;1.20;;;14.20;53.70;;;;;;4897347;29;20059;-81
2021/04/26 03:16:02;;;;;;;5.22;1.13;;;14.20;54.40;;;;;;4897270;29;20036;-81
2021/04/26 03:18:28;;;;;;;1.05;0.60;;;14.10;54.80;;;;;;4897336;29;20054;-79
2021/04/26 03:20:56;;;;;;;2.53;0.88;;;14.00;55.70;;;;;;4897532;29;20020;-78
2021/04/26 03:23:24;;;;;;;2.22;0.75;;;13.90;55.20;;;;;;4896788;29;20039;-80
2021/04/26 03:25:54;;;;;;;1.02;0.63;;;13.90;55.10;;;;;;4885072;29;20139;-81
2021/04/26 03:28:21;;;;;;;0.77;0.70;;;14.00;54.70;;;;;;4895430;29;20028;-80
2021/04/26 03:30:47;;;;;;;3.10;1.00;;;13.90;54.50;;;;;;4897199;29;20029;-79
2021/04/26 03:33:14;;;;;;;0.75;0.73;;;13.90;54.60;;;;;;4880508;29;20033;-80
2021/04/26 03:35:40;;;;;;;0.90;0.50;;;13.90;54.40;;;;;;4897133;29;20032;-80
2021/04/26 03:38:06;;;;;;;0.80;0.60;;;13.90;54.20;;;;;;4897061;29;20556;-80
2021/04/26 03:40:32;;;;;;;3.20;0.70;;;13.80;54.30;;;;;;4896691;29;20033;-80
2021/04/26 03:43:00;;;;;;;1.70;0.88;;;13.80;54.20;;;;;;4885201;29;20052;-79
2021/04/26 03:45:27;;;;;;;7.20;0.88;;;13.70;53.90;;;;;;4889328;29;20104;-78
2021/04/26 03:47:54;;;;;;;2.13;0.65;;;13.70;53.90;;;;;;4877248;29;20036;-80
2021/04/26 03:50:21;;;;;;;1.17;0.38;;;13.70;54.10;;;;;;4878139;29;20457;-80
2021/04/26 03:52:47;;;;;;;2.63;0.95;;;13.60;54.70;;;;;;4897054;29;20052;-78
2021/04/26 03:55:23;;;;;;;7.85;1.20;;;13.60;54.80;;;;;;4896754;29;20068;-80
2021/04/26 03:57:49;;;;;;;0.70;0.65;;;13.60;54.90;;;;;;4892774;29;20107;-81
2021/04/26 04:00:16;;;;;;;1.20;0.80;;;13.50;55.20;;;;;;4879249;29;20036;-80
2021/04/26 04:02:41;;;;;;;2.08;0.70;;;13.50;55.20;;;;;;4896697;29;20036;-80
2021/04/26 04:05:08;;;;;;;3.42;0.57;;;13.50;54.90;;;;;;4885304;29;20029;-80
2021/04/26 04:07:35;;;;;;;2.53;0.88;;;13.40;55.80;;;;;;4878200;29;20033;-80
2021/04/26 04:10:02;;;;;;;4.95;0.88;;;13.40;55.40;;;;;;4881577;29;20039;-78
2021/04/26 04:12:28;;;;;;;1.33;0.80;;;13.40;55.60;;;;;;4881992;29;20067;-79
2021/04/26 04:14:53;;;;;;;0.75;0.57;;;13.30;55.80;;;;;;4882542;29;20036;-80
2021/04/26 04:17:19;;;;;;;1.27;0.70;;;13.30;56.20;;;;;;4899623;29;20032;-80
2021/04/26 04:19:45;;;;;;;0.98;0.63;;;13.20;56.20;;;;;;4899489;29;20108;-80
2021/04/26 04:22:10;;;;;;;2.65;0.95;;;13.20;56.00;;;;;;4888995;29;20076;-79
2021/04/26 04:24:36;;;;;;;2.25;0.90;;;13.20;56.00;;;;;;4896480;29;20088;-78
2021/04/26 04:27:02;;;;;;;1.55;0.73;;;13.20;56.00;;;;;;4896326;29;20020;-80
2021/04/26 04:29:28;;;;;;;1.85;0.52;;;13.20;56.00;;;;;;4900316;29;20035;-80
2021/04/26 04:31:54;;;;;;;3.20;0.95;;;13.20;56.10;;;;;;4883962;29;20124;-80
2021/04/26 04:34:19;;;;;;;1.80;0.90;;;13.20;55.60;;;;;;4897283;29;20040;-80
2021/04/26 04:36:45;;;;;;;6.13;1.20;;;13.10;55.80;;;;;;4879944;29;20068;-79
2021/04/26 04:39:10;;;;;;;2.53;0.80;;;13.10;55.50;;;;;;4896739;29;20043;-80
2021/04/26 04:41:36;;;;;;;2.20;1.13;;;13.10;55.60;;;;;;4895974;29;20428;-78
2021/04/26 04:44:02;;;;;;;2.53;0.90;;;13.10;55.30;;;;;;4894990;29;20028;-81
2021/04/26 04:46:28;;;;;;;1.63;0.57;;;13.10;55.60;;;;;;4881307;29;20025;-80
2021/04/26 04:48:54;;;;;;;3.47;1.15;;;13.10;55.40;;;;;;4891234;29;20032;-78
2021/04/26 04:51:20;;;;;;;1.70;1.02;;;13.10;55.40;;;;;;4886155;29;20029;-80
2021/04/26 04:53:46;;;;;;;4.05;0.98;;;13.10;55.50;;;;;;4876352;29;20378;-80
2021/04/26 04:56:12;;;;;;;4.15;0.90;;;13.10;55.30;;;;;;4896449;29;20028;-80
2021/04/26 04:58:38;;;;;;;1.80;1.17;;;13.10;55.50;;;;;;4875048;29;20040;-80
2021/04/26 05:01:03;;;;;;;3.33;1.20;;;13.10;54.90;;;;;;4896104;29;20024;-78
2021/04/26 05:03:29;;;;;;;2.10;1.25;;;13.10;54.90;;;;;;4896334;29;20025;-78
2021/04/26 05:05:55;;;;;;;1.85;1.05;;;13.10;54.70;;;;;;4879124;29;20212;-81
2021/04/26 05:08:21;;;;;;;2.10;1.00;;;13.00;54.60;;;;;;4895936;29;20068;-80
2021/04/26 05:10:46;;;;;;;1.38;1.17;;;13.10;55.00;;;;;;4876404;29;20029;-80
2021/04/26 05:13:12;;;;;;;1.92;0.95;;;13.10;55.00;;;;;;4896045;29;20492;-81
2021/04/26 05:15:38;;;;;;;1.40;1.15;;;13.00;54.70;;;;;;4881369;29;20029;-79
2021/04/26 05:18:05;;;;;;;1.17;0.98;;;13.00;55.10;;;;;;4899629;29;20080;-81
2021/04/26 05:20:31;;;;;;;2.38;1.30;;;13.00;55.60;;;;;;4897113;29;20021;-78
2021/04/26 05:22:59;;;;;;;1.40;1.30;;;12.90;56.50;;;;;;4895681;29;20492;-80
2021/04/26 05:25:25;;;;;;;2.47;1.15;;;12.90;57.00;;;;;;4898890;29;20043;-80
2021/04/26 05:27:51;;;;;;;3.50;1.83;;;12.80;57.50;;;;;;4889637;29;20037;-77
2021/04/26 05:30:17;;;;;;;2.28;1.92;;;12.70;58.00;;;;;;4880989;29;20058;-79
2021/04/26 05:32:43;;;;;;;4.00;1.30;;;12.60;59.20;;;;;;4880509;29;20080;-80
2021/04/26 05:35:09;;;;;;;1.42;1.08;;;12.60;61.80;;;;;;4880919;29;20031;-80
2021/04/26 05:37:34;;;;;;;2.22;1.70;;;12.40;63.90;;;;;;4895403;29;20044;-80
2021/04/26 05:40:00;;;;;;;4.45;1.83;;;12.30;65.70;;;;;;4898124;29;20398;-81
2021/04/26 05:42:26;;;;;;;4.13;1.77;;;12.20;64.90;;;;;;4891212;29;20053;-79
2021/04/26 05:44:51;;;;;;;2.28;1.50;;;12.10;65.30;;;;;;4890875;29;20040;-81
2021/04/26 05:47:17;;;;;;;3.22;1.42;;;12.10;65.60;;;;;;4881220;29;20778;-80
2021/04/26 05:49:43;;;;;;;1.88;1.48;;;12.00;66.70;;;;;;4879529;29;20396;-80
2021/04/26 05:52:08;;;;;;;5.50;2.63;;;11.90;65.90;;;;;;4888146;29;20029;-80
2021/04/26 05:54:34;;;;;;;1.48;1.08;;;11.90;66.40;;;;;;4894896;29;20033;-80
2021/04/26 05:57:00;;;;;;;3.88;1.80;;;11.90;65.10;;;;;;4874958;29;20028;-80
2021/04/26 05:59:25;;;;;;;2.72;1.50;;;11.90;66.20;;;;;;4898716;29;20064;-81
2021/04/26 06:01:51;;;;;;;2.22;1.63;;;11.90;64.90;;;;;;4881233;29;20028;-81
2021/04/26 06:04:17;;;;;;;4.22;1.80;;;11.90;65.60;;;;;;4895987;29;20076;-81
2021/04/26 06:06:42;;;;;;;3.13;2.03;;;11.90;64.90;;;;;;4881622;29;20044;-79
2021/04/26 06:09:08;;;;;;;3.53;1.45;;;11.80;64.90;;;;;;4879739;29;20063;-79
2021/04/26 06:11:34;;;;;;;3.30;1.40;;;11.80;65.70;;;;;;4879615;29;20037;-82
2021/04/26 06:14:00;;;;;;;7.10;2.22;;;11.80;65.50;;;;;;4887347;29;20591;-79
2021/04/26 06:16:25;;;;;;;7.55;1.83;;;11.80;65.70;;;;;;4889856;29;20072;-81
2021/04/26 06:18:51;;;;;;;4.00;2.05;;;11.80;66.30;;;;;;4877946;29;20029;-79
2021/04/26 06:21:17;;;;;;;1.95;1.55;;;11.80;66.40;;;;;;4890341;29;20033;-81
2021/04/26 06:23:42;;;;;;;8.93;2.08;;;11.80;65.90;;;;;;4897176;29;20073;-81
2021/04/26 06:26:08;;;;;;;4.13;2.10;;;11.80;66.00;;;;;;4883067;29;20021;-81
2021/04/26 06:28:33;;;;;;;2.05;1.73;;;11.80;65.10;;;;;;4894338;29;20404;-82
2021/04/26 06:30:59;;;;;;;4.63;2.25;;;11.80;65.50;;;;;;4893627;29;20033;-81
2021/04/26 06:33:25;;;;;;;2.50;2.03;;;11.80;64.60;;;;;;4877161;29;20040;-79
2021/04/26 06:35:53;;;;;;;5.78;2.15;;;11.90;64.40;;;;;;4881770;29;20096;-81
2021/04/26 06:38:19;;;;;;;6.53;2.20;;;11.90;64.00;;;;;;4884153;29;20037;-81
2021/04/26 06:40:45;;;;;;;5.00;2.15;;;11.90;63.80;;;;;;4895028;29;20666;-81
2021/04/26 06:43:12;;;;;;;3.75;1.58;;;11.90;64.00;;;;;;4878009;29;20048;-82
2021/04/26 06:45:39;;;;;;;2.63;1.88;;;12.00;63.40;;;;;;4886166;29;20029;-80
2021/04/26 06:48:06;;;;;;;8.13;1.95;;;12.00;63.10;;;;;;4879095;29;20459;-81
2021/04/26 06:50:31;;;;;;;6.45;2.45;;;12.00;62.50;;;;;;4891548;29;20040;-81
2021/04/26 06:52:57;;;;;;;10.20;3.00;;;12.00;63.10;;;;;;4886172;29;20124;-81
2021/04/26 06:55:25;;;;;;;6.32;1.98;;;12.10;62.80;;;;;;4876791;29;20099;-82
2021/04/26 06:57:51;;;;;;;4.38;1.95;;;12.10;62.20;;;;;;4890063;29;20035;-81
2021/04/26 07:00:18;;;;;;;3.35;2.30;;;12.10;62.20;;;;;;4868181;29;20063;-80
2021/04/26 07:02:44;;;;;;;4.25;2.17;;;12.10;61.80;;;;;;4871718;29;20059;-82
2021/04/26 07:05:10;;;;;;;5.90;1.75;;;12.20;61.90;;;;;;4892356;29;20052;-81
2021/04/26 07:07:36;;;;;;;5.30;1.98;;;12.20;61.60;;;;;;4894980;29;20431;-81
2021/04/26 07:10:03;;;;;;;5.53;2.30;;;12.20;60.70;;;;;;4890440;29;20503;-81
2021/04/26 07:12:28;;;;;;;5.78;1.70;;;12.30;61.10;;;;;;4884777;29;20039;-79
2021/04/26 07:14:54;;;;;;;6.38;2.28;;;12.40;60.60;;;;;;4886512;29;20463;-80
2021/04/26 07:17:22;;;;;;;13.02;2.40;;;12.50;60.50;;;;;;4885130;29;20530;-78
2021/04/26 07:19:48;;;;;;;2.60;1.88;;;12.50;60.40;;;;;;4883828;29;20020;-80
2021/04/26 07:22:14;;;;;;;7.32;2.25;;;12.60;60.00;;;;;;4881896;29;20088;-81
2021/04/26 07:24:39;;;;;;;11.98;2.42;;;12.60;59.70;;;;;;4890214;29;20085;-80
2021/04/26 07:27:05;;;;;;;2.00;1.88;;;12.70;59.70;;;;;;4870793;29;20050;-79
2021/04/26 07:29:31;;;;;;;2.75;1.75;;;12.70;58.90;;;;;;4892713;29;20032;-82
2021/04/26 07:31:56;;;;;;;1.98;1.73;;;12.80;58.90;;;;;;4891914;29;20467;-81
2021/04/26 07:34:22;;;;;;;6.47;2.83;;;12.90;58.50;;;;;;4891572;29;20139;-81
2021/04/26 07:36:47;;;;;;;2.53;1.80;;;13.00;58.50;;;;;;4886331;29;20087;-81
2021/04/26 07:39:15;;;;;;;9.18;2.55;;;13.00;57.90;;;;;;4891773;29;20024;-79
2021/04/26 07:41:41;;;;;;;5.85;1.80;;;13.10;57.20;;;;;;4886703;29;20087;-82
2021/04/26 07:44:07;;;;;;;4.18;2.30;;;13.10;57.20;;;;;;4885116;29;20039;-81
2021/04/26 07:46:32;;;;;;;4.97;2.00;;;13.10;57.10;;;;;;4885227;29;20032;-82
2021/04/26 07:48:58;;;;;;;5.93;2.40;;;13.30;57.20;;;;;;4874521;29;20037;-81
2021/04/26 07:51:24;;;;;;;4.65;2.30;;;13.40;56.70;;;;;;4886256;29;20036;-81
2021/04/26 07:53:49;;;;;;;4.65;2.60;;;13.50;56.60;;;;;;4881187;29;20519;-80
2021/04/26 07:56:15;;;;;;;8.55;2.88;;;13.40;56.60;;;;;;4873022;29;20048;-82
2021/04/26 07:58:41;;;;;;;2.45;1.70;;;13.40;55.50;;;;;;4881287;29;20044;-81
2021/04/26 08:01:06;;;;;;;7.25;2.38;;;13.50;55.80;;;;;;4889557;29;20032;-81
2021/04/26 08:03:32;;;;;;;2.47;1.65;;;13.60;55.30;;;;;;4890689;29;20107;-80
2021/04/26 08:05:57;;;;;;;7.85;2.30;;;13.80;54.90;;;;;;4887748;29;20349;-80
2021/04/26 08:08:23;;;;;;;6.97;2.20;;;13.80;54.60;;;;;;4886650;29;20149;-81
2021/04/26 08:10:49;;;;;;;6.22;1.90;;;14.00;55.70;;;;;;4874906;29;20037;-81
2021/04/26 08:13:15;;;;;;;4.13;1.77;;;14.10;54.20;;;;;;4871925;29;20045;-81
2021/04/26 08:15:41;;;;;;;4.35;2.28;;;14.00;53.40;;;;;;4875475;29;20045;-81
2021/04/26 08:18:07;;;;;;;4.75;2.22;;;14.00;53.30;;;;;;4892556;29;20040;-80
2021/04/26 08:20:33;;;;;;;5.85;2.08;;;14.00;54.40;;;;;;4882725;29;20789;-82
2021/04/26 08:22:59;;;;;;;3.28;2.38;;;14.20;53.80;;;;;;4872610;29;20036;-80
2021/04/26 08:25:24;;;;;;;4.05;2.22;;;14.30;53.40;;;;;;4889754;29;20484;-82
2021/04/26 08:27:50;;;;;;;3.95;2.10;;;14.30;52.70;;;;;;4877988;29;20068;-82
2021/04/26 08:30:16;;;;;;;3.35;2.00;;;14.40;53.80;;;;;;4883484;29;20085;-80
2021/04/26 08:32:42;;;;;;;3.38;2.15;;;14.70;52.70;;;;;;4878911;29;20120;-80
2021/04/26 08:35:08;;;;;;;2.20;1.92;;;14.80;53.00;;;;;;4888697;29;20509;-82
2021/04/26 08:37:34;;;;;;;3.83;2.42;;;15.00;53.50;;;;;;4890063;29;20052;-82
2021/04/26 08:40:00;;;;;;;3.03;2.10;;;15.20;52.40;;;;;;4892293;29;20037;-82
2021/04/26 08:42:25;;;;;;;6.68;2.72;;;15.70;50.20;;;;;;4889166;29;20052;-80
2021/04/26 08:44:51;;;;;;;4.20;2.38;;;16.60;47.60;;;;;;4882044;29;20128;-80
2021/04/26 08:47:19;;;;;;;5.82;2.20;;;17.00;47.20;;;;;;4877145;29;20032;-82
2021/04/26 08:49:45;;;;;;;3.25;2.42;;;17.00;47.00;;;;;;4868375;29;20481;-81
2021/04/26 08:52:11;;;;;;;5.45;2.38;;;16.40;49.10;;;;;;4888762;29;20039;-79
2021/04/26 08:54:37;;;;;;;5.82;2.03;;;16.00;48.40;;;;;;4885780;29;20032;-82
2021/04/26 08:57:03;;;;;;;4.53;2.22;;;15.90;48.50;;;;;;4889175;29;20029;-82
2021/04/26 08:59:29;;;;;;;4.10;2.40;;;16.00;48.50;;;;;;4893479;29;20124;-83
2021/04/26 09:02:05;;;;;;;7.10;2.00;;;16.00;49.50;;;;;;4879416;29;20053;-82
2021/04/26 09:04:35;;;;;;;9.43;2.28;;;15.80;48.60;;;;;;4887284;29;20392;-83
2021/04/26 09:07:09;;;;;;;4.15;2.10;;;15.70;50.80;;;;;;4887153;29;20496;-81
2021/04/26 09:09:41;;;;;;;2.03;1.83;;;15.80;49.50;;;;;;4873293;29;20033;-80
2021/04/26 09:12:30;;;;;;;5.88;1.90;;;15.80;49.30;;;;;;4874702;29;20029;-81
2021/04/26 09:15:00;;;;;;;5.07;2.10;;;15.90;49.30;;;;;;4866219;29;20036;-81
2021/04/26 09:17:37;;;;;;;5.47;2.22;;;16.10;48.70;;;;;;4886517;29;20048;-81
2021/04/26 09:20:15;;;;;;;3.90;1.85;;;16.30;48.80;;;;;;4883139;29;20365;-82
2021/04/26 09:22:54;;;;;;;10.48;2.15;;;16.30;48.80;;;;;;4892046;29;20033;-81
2021/04/26 09:25:32;;;;;;;2.50;1.70;;;16.20;48.30;;;;;;4883500;29;20044;-80
2021/04/26 09:28:11;;;;;;;4.50;2.25;;;16.10;49.20;;;;;;4882836;29;20033;-81
2021/04/26 09:30:36;;;;;;;3.83;2.00;;;15.70;49.60;;;;;;4871042;29;20032;-81
2021/04/26 09:33:40;;;;;;;6.78;2.47;;;15.60;50.00;;;;;;4895580;29;20040;-81
2021/04/26 09:36:21;;;;;;;4.70;2.67;;;15.70;50.40;;;;;;4882528;29;20033;-81
2021/04/26 09:38:51;;;;;;;9.57;2.67;;;15.80;50.60;;;;;;4877123;29;20185;-83
2021/04/26 09:41:19;;;;;;;2.80;1.88;;;16.00;49.60;;;;;;4889546;29;20056;-81
2021/04/26 09:43:53;;;;;;;3.10;2.53;;;16.30;49.30;;;;;;4882190;29;20055;-81
2021/04/26 09:46:21;;;;;;;3.45;1.98;;;16.60;48.80;;;;;;4885768;29;20465;-82
2021/04/26 09:48:47;;;;;;;5.10;2.47;;;17.20;47.70;;;;;;4885648;29;20051;-82
2021/04/26 09:51:21;;;;;;;8.85;2.58;;;17.50;46.60;;;;;;4886002;29;20033;-81
2021/04/26 09:53:52;;;;;;;3.50;2.20;;;17.80;45.70;;;;;;4891916;29;20037;-81
2021/04/26 09:56:22;;;;;;;2.88;2.30;;;18.20;45.20;;;;;;4894715;29;20160;-81
2021/04/26 09:58:53;;;;;;;10.13;2.72;;;18.40;44.70;;;;;;4891745;29;20029;-79
2021/04/26 10:01:19;;;;;;;6.05;2.38;;;18.40;44.90;;;;;;4892533;29;20032;-81
2021/04/26 10:03:45;;;;;;;7.88;2.35;;;18.30;44.80;;;;;;4889832;29;20076;-79
2021/04/26 10:06:18;;;;;;;4.05;2.35;;;18.40;45.30;;;;;;4891103;29;20069;-85
2021/04/26 10:08:48;;;;;;;4.68;2.25;;;18.50;44.10;;;;;;4871575;29;20029;-87
2021/04/26 10:11:14;;;;;;;5.30;2.97;;;18.70;43.10;;;;;;4873350;29;20048;-85
2021/04/26 10:13:40;;;;;;;10.32;2.67;;;18.80;43.80;;;;;;4892189;29;20028;-82
2021/04/26 10:16:09;;;;;;;3.60;2.30;;;19.00;43.40;;;;;;4879395;29;20035;-80
2021/04/26 10:18:40;;;;;;;6.45;2.10;;;19.70;42.70;;;;;;4871636;29;20042;-85
2021/04/26 10:21:18;;;;;;;6.10;2.58;;;20.30;42.10;;;;;;4877921;29;20405;-85
2021/04/26 10:23:45;;;;;;;2.97;1.90;;;20.60;40.30;;;;;;4890454;29;20033;-81
2021/04/26 10:26:42;;;;;;;2.95;2.10;;;20.30;40.30;;;;;;4878614;29;20037;-82
2021/04/26 10:29:29;;;;;;;4.40;2.45;;;19.90;42.30;;;;;;4886213;29;20037;-81
2021/04/26 10:32:01;;;;;;;4.05;3.05;;;19.50;42.50;;;;;;4893884;29;20535;-83
2021/04/26 10:34:56;;;;;;;5.82;2.13;;;19.30;43.10;;;;;;4888524;29;20032;-86
2021/04/26 10:37:25;;;;;;;3.17;2.35;;;18.90;43.90;;;;;;4874853;29;20041;-89
2021/04/26 10:39:56;;;;;;;3.42;1.83;;;18.80;45.50;;;;;;4869023;29;20374;-82
2021/04/26 10:42:51;;;;;;;4.25;2.13;;;18.70;44.80;;;;;;4883252;29;20056;-85
2021/04/26 10:45:20;;;;;;;2.42;1.90;;;18.60;44.90;;;;;;4887205;29;20449;-82
2021/04/26 10:47:47;;;;;;;4.22;2.60;;;18.70;44.30;;;;;;4895057;29;20033;-85
2021/04/26 10:50:15;;;;;;;3.03;2.00;;;18.70;44.80;;;;;;4890448;29;20072;-84
2021/04/26 10:52:43;;;;;;;7.35;2.30;;;18.50;44.40;;;;;;4877800;29;20127;-80
2021/04/26 10:55:19;;;;;;;9.25;2.13;;;18.90;43.90;;;;;;4877481;29;20039;-82
2021/04/26 10:57:49;;;;;;;3.35;1.98;;;19.40;42.40;;;;;;4885547;29;20128;-84
2021/04/26 11:00:21;;;;;;;2.67;2.00;;;19.90;42.90;;;;;;4890681;29;20081;-83
2021/04/26 11:02:51;;;;;;;5.25;2.03;;;20.30;41.30;;;;;;4889082;29;20032;-83
2021/04/26 11:05:25;;;;;;;3.42;2.38;;;20.70;40.70;;;;;;4887616;29;20104;-82
2021/04/26 11:07:56;;;;;;;2.55;1.95;;;20.60;40.60;;;;;;4893639;29;20028;-82
2021/04/26 11:10:48;;;;;;;2.55;2.05;;;20.40;41.30;;;;;;4887978;29;20408;-83
2021/04/26 11:13:35;;;;;;;2.50;1.77;;;20.40;42.30;;;;;;4882518;29;20052;-83
2021/04/26 11:16:18;;;;;;;2.88;1.92;;;20.30;40.60;;;;;;4884880;29;20029;-83
2021/04/26 11:19:03;;;;;;;2.13;1.55;;;20.50;40.70;;;;;;4887594;29;20061;-82
2021/04/26 11:21:50;;;;;;;3.30;2.17;;;20.70;41.20;;;;;;4860495;29;20157;-82
2021/04/26 11:24:24;;;;;;;2.33;1.95;;;20.70;41.40;;;;;;4890963;29;20032;-83
2021/04/26 11:27:12;;;;;;;2.78;2.03;;;20.50;40.60;;;;;;4872454;29;20087;-83
2021/04/26 11:29:41;;;;;;;4.32;2.00;;;20.60;41.00;;;;;;4880288;29;20032;-82
2021/04/26 11:32:08;;;;;;;4.30;2.28;;;20.60;41.00;;;;;;4894052;29;20037;-82
2021/04/26 11:34:50;;;;;;;3.85;1.70;;;20.70;40.40;;;;;;4885142;29;20072;-83
2021/04/26 11:37:20;;;;;;;2.22;1.90;;;20.80;41.30;;;;;;4874339;29;20036;-84
2021/04/26 11:39:47;;;;;;;4.03;2.42;;;20.70;40.90;;;;;;4867567;29;20025;-80
2021/04/26 11:42:29;;;;;;;4.20;1.95;;;20.40;41.20;;;;;;4877453;29;20049;-84
2021/04/26 11:44:55;;;;;;;3.20;1.80;;;20.30;41.80;;;;;;4891654;29;20098;-81
2021/04/26 11:47:22;;;;;;;11.02;2.25;;;20.00;42.80;;;;;;4893365;29;20104;-81
2021/04/26 11:49:52;;;;;;;8.55;2.00;;;20.00;42.00;;;;;;4888423;29;20043;-86
2021/04/26 11:52:18;;;;;;;3.55;2.10;;;20.00;42.10;;;;;;4884830;29;20021;-80
2021/04/26 11:54:45;;;;;;;8.45;1.85;;;20.20;42.70;;;;;;4891411;29;20080;-78
2021/04/26 11:57:19;;;;;;;5.68;2.22;;;20.50;42.30;;;;;;4880992;29;20034;-80
2021/04/26 11:59:55;;;;;;;4.28;2.22;;;21.20;41.90;;;;;;4887274;29;20509;-80
2021/04/26 12:02:30;;;;;;;2.35;2.00;;;21.50;39.80;;;;;;4887331;29;20029;-84
2021/04/26 12:05:00;;;;;;;4.93;2.22;;;21.40;40.60;;;;;;4883557;29;20064;-87
2021/04/26 12:07:27;;;;;;;4.47;2.17;;;21.40;40.10;;;;;;4889695;29;20092;-80
2021/04/26 12:09:57;;;;;;;10.15;2.30;;;21.30;40.90;;;;;;4863259;29;20029;-85
2021/04/26 12:12:25;;;;;;;3.35;1.98;;;21.60;40.90;;;;;;4880018;29;20179;-80
2021/04/26 12:14:56;;;;;;;6.10;1.90;;;21.60;41.80;;;;;;4884176;29;20036;-85
2021/04/26 12:17:32;;;;;;;6.28;2.25;;;21.40;41.70;;;;;;4887281;29;20033;-86
2021/04/26 12:19:58;;;;;;;3.25;2.00;;;21.40;40.70;;;;;;4871594;29;20096;-79
2021/04/26 12:22:25;;;;;;;4.82;2.00;;;21.30;40.10;;;;;;4868268;29;20111;-88
2021/04/26 12:24:53;;;;;;;5.32;2.10;;;21.20;40.00;;;;;;4888457;29;20043;-82
2021/04/26 12:27:24;;;;;;;4.95;1.60;;;21.10;40.20;;;;;;4876958;29;20035;-81
2021/04/26 12:29:51;;;;;;;9.50;2.17;;;21.00;38.80;;;;;;4896533;29;20032;-85
2021/04/26 12:32:22;;;;;;;3.40;1.88;;;21.10;39.10;;;;;;4885618;29;20044;-81
2021/04/26 12:34:55;;;;;;;4.75;1.65;;;20.90;39.70;;;;;;4891645;29;20120;-83
2021/04/26 12:37:27;;;;;;;4.15;1.50;;;20.90;39.80;;;;;;4869873;29;20096;-82
2021/04/26 12:40:08;;;;;;;4.50;2.03;;;20.90;40.80;;;;;;4890869;29;20035;-81
2021/04/26 12:42:34;;;;;;;3.58;1.75;;;21.10;38.90;;;;;;4873504;29;20063;-84
2021/04/26 12:45:09;;;;;;;2.28;1.90;;;21.70;39.40;;;;;;4891504;29;20412;-82
2021/04/26 12:47:50;;;;;;;3.78;1.88;;;22.10;38.50;;;;;;4891295;29;20318;-80
2021/04/26 12:50:31;;;;;;;5.65;1.90;;;22.70;37.40;;;;;;4876600;29;20403;-77
2021/04/26 12:53:18;;;;;;;9.50;2.42;;;22.80;35.30;;;;;;4897052;29;20085;-85
2021/04/26 12:55:51;;;;;;;3.05;2.03;;;22.90;36.40;;;;;;4894711;29;20033;-78